Hovedside
METAR-TAF:

METAR-TAF

Lufthavner :

Lüderitz, Namibia

breddegrad: 26-41S, lengdegrad: 015-15E, høyde over havet: 130 m

Gjeldene værobservasjon

Denne rapporten ble laget for 14 minutter siden, klokken 02:00 UTC
Temperatur 16°C
Luftfuktighet 77%
Trykk 1018 hPa

METAR: FYLZ 140200Z AUTO /////KT //// // ////// 16/12 Q1018

Tid: 04:14 (02:14 UTC)

Varsel

Denne rapporten ble laget for 9 timer og 14 minutter siden, klokken 17:00 UTC
Varsel gyldig fra 13. klokken 18 UTC til 14. klokken 03 UTC
Vind 5 kt fra Sør-sørøst
Sikt 10 km eller mer
ingen skyer under 1500 m og ingen bygeskyer
Blir
fra 13. klokken 21 UTC til 13. klokken 23 UTC
Sikt 10 km eller mer
Brutte skyer i en høyde av 2000 ft

TAF: FYLZ 131700Z 1318/1403 16005KT CAVOK BECMG 1321/1323 9999 BKN020

Værobservasjoner og værvarsel for over 4000 flyplasser (METAR- og TAF-rapporter).

Tilgjengelige stasjoner er representert av de røde og gule prikkene på kartet.

Hold musepekeren over prikken for å se navnet på stasjonen.

Klikk så for å se værobservasjoner og -varsler.

For å forandre kartet kan du klikke på den grønne knappen med svart kryss for å zoome inn, på den grønne knappen med strek for å zoome ut, eller på de grønne pilene for å se tilstøtende kart.


METAR-TAF: